sensor_id;sensor_type;location;lat;lon;timestamp;temperature;humidity
9125;DHT22;4597;48.730;9.114;2024-01-16T00:01:44;0.20;99.90
9125;DHT22;4597;48.730;9.114;2024-01-16T00:04:11;0.30;99.90
9125;DHT22;4597;48.730;9.114;2024-01-16T00:06:40;0.30;99.90
9125;DHT22;4597;48.730;9.114;2024-01-16T00:09:06;0.30;99.90
9125;DHT22;4597;48.730;9.114;2024-01-16T00:11:32;0.20;99.90
9125;DHT22;4597;48.730;9.114;2024-01-16T00:13:57;0.30;99.90
9125;DHT22;4597;48.730;9.114;2024-01-16T00:16:23;0.30;99.90
9125;DHT22;4597;48.730;9.114;2024-01-16T00:18:48;0.30;99.90
9125;DHT22;4597;48.730;9.114;2024-01-16T00:21:14;0.30;99.90
9125;DHT22;4597;48.730;9.114;2024-01-16T00:23:39;0.30;99.90
9125;DHT22;4597;48.730;9.114;2024-01-16T00:26:05;0.20;99.90
9125;DHT22;4597;48.730;9.114;2024-01-16T00:28:33;0.20;99.90
9125;DHT22;4597;48.730;9.114;2024-01-16T00:30:59;0.20;99.90
9125;DHT22;4597;48.730;9.114;2024-01-16T00:33:24;0.30;99.90
9125;DHT22;4597;48.730;9.114;2024-01-16T00:35:52;0.30;99.90
9125;DHT22;4597;48.730;9.114;2024-01-16T00:38:18;0.20;99.90
9125;DHT22;4597;48.730;9.114;2024-01-16T00:40:43;0.30;99.90
9125;DHT22;4597;48.730;9.114;2024-01-16T00:43:09;0.30;99.90
9125;DHT22;4597;48.730;9.114;2024-01-16T00:45:34;0.20;99.90
9125;DHT22;4597;48.730;9.114;2024-01-16T00:48:00;0.20;99.90
9125;DHT22;4597;48.730;9.114;2024-01-16T00:50:25;0.30;99.90
9125;DHT22;4597;48.730;9.114;2024-01-16T00:52:52;0.30;99.90
9125;DHT22;4597;48.730;9.114;2024-01-16T00:55:17;0.30;99.90
9125;DHT22;4597;48.730;9.114;2024-01-16T00:57:42;0.40;99.90
9125;DHT22;4597;48.730;9.114;2024-01-16T01:00:08;0.40;99.90
9125;DHT22;4597;48.730;9.114;2024-01-16T01:02:35;0.30;99.90
9125;DHT22;4597;48.730;9.114;2024-01-16T01:05:00;0.30;99.90
9125;DHT22;4597;48.730;9.114;2024-01-16T01:07:26;0.30;99.90
9125;DHT22;4597;48.730;9.114;2024-01-16T01:09:52;0.30;99.90
9125;DHT22;4597;48.730;9.114;2024-01-16T01:12:17;0.40;99.90
9125;DHT22;4597;48.730;9.114;2024-01-16T01:14:43;0.40;99.90
9125;DHT22;4597;48.730;9.114;2024-01-16T01:17:08;0.40;99.90
9125;DHT22;4597;48.730;9.114;2024-01-16T01:19:34;0.40;99.90
9125;DHT22;4597;48.730;9.114;2024-01-16T01:21:59;0.40;99.90
9125;DHT22;4597;48.730;9.114;2024-01-16T01:24:25;0.30;99.90
9125;DHT22;4597;48.730;9.114;2024-01-16T01:26:50;0.40;99.90
9125;DHT22;4597;48.730;9.114;2024-01-16T01:29:16;0.40;99.90
9125;DHT22;4597;48.730;9.114;2024-01-16T01:31:45;0.30;99.90
9125;DHT22;4597;48.730;9.114;2024-01-16T01:34:12;0.30;99.90
9125;DHT22;4597;48.730;9.114;2024-01-16T01:36:38;0.30;99.90
9125;DHT22;4597;48.730;9.114;2024-01-16T01:39:03;0.30;99.90
9125;DHT22;4597;48.730;9.114;2024-01-16T01:41:29;0.30;99.90
9125;DHT22;4597;48.730;9.114;2024-01-16T01:43:54;0.20;99.90
9125;DHT22;4597;48.730;9.114;2024-01-16T01:46:20;0.30;99.90
9125;DHT22;4597;48.730;9.114;2024-01-16T01:48:48;0.30;99.90
9125;DHT22;4597;48.730;9.114;2024-01-16T01:51:14;0.30;99.90
9125;DHT22;4597;48.730;9.114;2024-01-16T01:53:43;0.20;99.90
9125;DHT22;4597;48.730;9.114;2024-01-16T01:56:12;0.20;99.90
9125;DHT22;4597;48.730;9.114;2024-01-16T01:58:39;0.30;99.90
9125;DHT22;4597;48.730;9.114;2024-01-16T02:01:06;0.30;99.90
9125;DHT22;4597;48.730;9.114;2024-01-16T02:03:45;0.30;99.90
9125;DHT22;4597;48.730;9.114;2024-01-16T02:06:14;0.30;99.90
9125;DHT22;4597;48.730;9.114;2024-01-16T02:08:42;0.20;99.90
9125;DHT22;4597;48.730;9.114;2024-01-16T02:11:08;0.10;99.90
9125;DHT22;4597;48.730;9.114;2024-01-16T02:13:34;0.10;99.90
9125;DHT22;4597;48.730;9.114;2024-01-16T02:16:00;0.10;99.90
9125;DHT22;4597;48.730;9.114;2024-01-16T02:18:26;0.10;99.90
9125;DHT22;4597;48.730;9.114;2024-01-16T02:20:51;0.10;99.90
9125;DHT22;4597;48.730;9.114;2024-01-16T02:23:26;0.10;99.90
9125;DHT22;4597;48.730;9.114;2024-01-16T02:25:51;0.00;99.90
9125;DHT22;4597;48.730;9.114;2024-01-16T02:28:17;-0.10;99.90
9125;DHT22;4597;48.730;9.114;2024-01-16T02:30:43;-0.10;99.90
9125;DHT22;4597;48.730;9.114;2024-01-16T02:33:08;-0.10;99.90
9125;DHT22;4597;48.730;9.114;2024-01-16T02:35:34;-0.20;99.90
9125;DHT22;4597;48.730;9.114;2024-01-16T02:37:59;-0.20;99.90
9125;DHT22;4597;48.730;9.114;2024-01-16T02:40:26;-0.20;99.90
9125;DHT22;4597;48.730;9.114;2024-01-16T02:42:52;-0.20;99.90
9125;DHT22;4597;48.730;9.114;2024-01-16T02:45:17;-0.20;99.90
9125;DHT22;4597;48.730;9.114;2024-01-16T02:47:43;-0.20;99.90
9125;DHT22;4597;48.730;9.114;2024-01-16T02:50:08;-0.20;99.90
9125;DHT22;4597;48.730;9.114;2024-01-16T02:52:37;-0.20;99.90
9125;DHT22;4597;48.730;9.114;2024-01-16T02:55:03;-0.10;99.90
9125;DHT22;4597;48.730;9.114;2024-01-16T02:57:28;-0.20;99.90
9125;DHT22;4597;48.730;9.114;2024-01-16T02:59:54;-0.20;99.90
9125;DHT22;4597;48.730;9.114;2024-01-16T03:02:19;-0.20;99.90
9125;DHT22;4597;48.730;9.114;2024-01-16T03:04:45;-0.30;99.90
9125;DHT22;4597;48.730;9.114;2024-01-16T03:07:10;-0.30;99.90
9125;DHT22;4597;48.730;9.114;2024-01-16T03:09:36;-0.30;99.90
9125;DHT22;4597;48.730;9.114;2024-01-16T03:12:02;-0.30;99.90
9125;DHT22;4597;48.730;9.114;2024-01-16T03:14:27;-0.30;99.90
9125;DHT22;4597;48.730;9.114;2024-01-16T03:16:53;-0.40;99.90
9125;DHT22;4597;48.730;9.114;2024-01-16T03:19:19;-0.40;99.90
9125;DHT22;4597;48.730;9.114;2024-01-16T03:21:44;-0.40;99.90
9125;DHT22;4597;48.730;9.114;2024-01-16T03:24:10;-0.30;99.90
9125;DHT22;4597;48.730;9.114;2024-01-16T03:26:38;-0.20;99.90
9125;DHT22;4597;48.730;9.114;2024-01-16T03:29:03;-0.20;99.90
9125;DHT22;4597;48.730;9.114;2024-01-16T03:31:30;-0.20;99.90
9125;DHT22;4597;48.730;9.114;2024-01-16T03:33:55;-0.20;99.90
9125;DHT22;4597;48.730;9.114;2024-01-16T03:36:21;-0.20;99.90
9125;DHT22;4597;48.730;9.114;2024-01-16T03:38:46;-0.20;99.90
9125;DHT22;4597;48.730;9.114;2024-01-16T03:41:12;-0.20;99.90
9125;DHT22;4597;48.730;9.114;2024-01-16T03:43:37;-0.20;99.90
9125;DHT22;4597;48.730;9.114;2024-01-16T03:46:03;-0.30;99.90
9125;DHT22;4597;48.730;9.114;2024-01-16T03:48:28;-0.20;99.90
9125;DHT22;4597;48.730;9.114;2024-01-16T03:50:55;-0.20;99.90
9125;DHT22;4597;48.730;9.114;2024-01-16T03:53:21;-0.20;99.90
9125;DHT22;4597;48.730;9.114;2024-01-16T03:55:47;-0.30;99.90
9125;DHT22;4597;48.730;9.114;2024-01-16T03:58:13;-0.20;99.90
9125;DHT22;4597;48.730;9.114;2024-01-16T04:00:38;-0.30;99.90
9125;DHT22;4597;48.730;9.114;2024-01-16T04:03:04;-0.30;99.90
9125;DHT22;4597;48.730;9.114;2024-01-16T04:05:29;-0.40;99.90
9125;DHT22;4597;48.730;9.114;2024-01-16T04:07:57;-0.40;99.90
9125;DHT22;4597;48.730;9.114;2024-01-16T04:10:22;-0.40;99.90
9125;DHT22;4597;48.730;9.114;2024-01-16T04:12:48;-0.40;99.90
9125;DHT22;4597;48.730;9.114;2024-01-16T04:15:13;-0.50;99.90
9125;DHT22;4597;48.730;9.114;2024-01-16T04:17:39;-0.50;99.90
9125;DHT22;4597;48.730;9.114;2024-01-16T04:20:05;-0.50;99.90
9125;DHT22;4597;48.730;9.114;2024-01-16T04:22:32;-0.60;99.90
9125;DHT22;4597;48.730;9.114;2024-01-16T04:24:58;-0.70;99.90
9125;DHT22;4597;48.730;9.114;2024-01-16T04:27:23;-0.80;99.90
9125;DHT22;4597;48.730;9.114;2024-01-16T04:29:50;-0.80;99.90
9125;DHT22;4597;48.730;9.114;2024-01-16T04:32:16;-0.80;99.90
9125;DHT22;4597;48.730;9.114;2024-01-16T04:34:41;-0.90;99.90
9125;DHT22;4597;48.730;9.114;2024-01-16T04:37:07;-0.90;99.90
9125;DHT22;4597;48.730;9.114;2024-01-16T04:39:32;-0.80;99.90
9125;DHT22;4597;48.730;9.114;2024-01-16T04:41:58;-0.90;99.90
9125;DHT22;4597;48.730;9.114;2024-01-16T04:44:23;-0.90;99.90
9125;DHT22;4597;48.730;9.114;2024-01-16T04:46:49;-0.90;99.90
9125;DHT22;4597;48.730;9.114;2024-01-16T04:49:14;-1.00;99.90
9125;DHT22;4597;48.730;9.114;2024-01-16T04:51:40;-1.00;99.90
9125;DHT22;4597;48.730;9.114;2024-01-16T04:54:06;-1.00;99.90
9125;DHT22;4597;48.730;9.114;2024-01-16T04:56:32;-1.10;99.90
9125;DHT22;4597;48.730;9.114;2024-01-16T04:58:58;-1.20;99.90
9125;DHT22;4597;48.730;9.114;2024-01-16T05:01:23;-1.20;99.90
9125;DHT22;4597;48.730;9.114;2024-01-16T05:03:50;-1.30;99.90
9125;DHT22;4597;48.730;9.114;2024-01-16T05:06:16;-1.30;99.90
9125;DHT22;4597;48.730;9.114;2024-01-16T05:08:42;-1.40;99.90
9125;DHT22;4597;48.730;9.114;2024-01-16T05:11:08;-1.50;99.90
9125;DHT22;4597;48.730;9.114;2024-01-16T05:13:33;-1.50;99.90
9125;DHT22;4597;48.730;9.114;2024-01-16T05:15:59;-1.60;99.90
9125;DHT22;4597;48.730;9.114;2024-01-16T05:18:24;-1.60;99.90
9125;DHT22;4597;48.730;9.114;2024-01-16T05:20:50;-1.70;99.90
9125;DHT22;4597;48.730;9.114;2024-01-16T05:23:15;-1.70;99.90
9125;DHT22;4597;48.730;9.114;2024-01-16T05:25:41;-1.70;99.90
9125;DHT22;4597;48.730;9.114;2024-01-16T05:28:06;-1.70;99.90
9125;DHT22;4597;48.730;9.114;2024-01-16T05:30:32;-1.70;99.90
9125;DHT22;4597;48.730;9.114;2024-01-16T05:32:58;-1.60;99.90
9125;DHT22;4597;48.730;9.114;2024-01-16T05:35:26;-1.70;99.90
9125;DHT22;4597;48.730;9.114;2024-01-16T05:37:53;-1.60;99.90
9125;DHT22;4597;48.730;9.114;2024-01-16T05:40:18;-1.60;99.90
9125;DHT22;4597;48.730;9.114;2024-01-16T05:42:44;-1.60;99.90
9125;DHT22;4597;48.730;9.114;2024-01-16T05:45:09;-1.50;99.90
9125;DHT22;4597;48.730;9.114;2024-01-16T05:47:35;-1.50;99.90
9125;DHT22;4597;48.730;9.114;2024-01-16T05:50:00;-1.50;99.90
9125;DHT22;4597;48.730;9.114;2024-01-16T05:52:26;-1.50;99.90
9125;DHT22;4597;48.730;9.114;2024-01-16T05:54:51;-1.50;99.90
9125;DHT22;4597;48.730;9.114;2024-01-16T05:57:17;-1.40;99.90
9125;DHT22;4597;48.730;9.114;2024-01-16T05:59:42;-1.50;99.90
9125;DHT22;4597;48.730;9.114;2024-01-16T06:02:08;-1.40;99.90
9125;DHT22;4597;48.730;9.114;2024-01-16T06:04:33;-1.40;99.90
9125;DHT22;4597;48.730;9.114;2024-01-16T06:06:59;-1.50;99.90
9125;DHT22;4597;48.730;9.114;2024-01-16T06:09:24;-1.50;99.90
9125;DHT22;4597;48.730;9.114;2024-01-16T06:11:50;-1.50;99.90
9125;DHT22;4597;48.730;9.114;2024-01-16T06:14:15;-1.50;99.90
9125;DHT22;4597;48.730;9.114;2024-01-16T06:16:47;-1.50;99.90
9125;DHT22;4597;48.730;9.114;2024-01-16T06:19:12;-1.50;99.90
9125;DHT22;4597;48.730;9.114;2024-01-16T06:21:38;-1.50;99.90
9125;DHT22;4597;48.730;9.114;2024-01-16T06:24:05;-1.50;99.90
9125;DHT22;4597;48.730;9.114;2024-01-16T06:26:30;-1.50;99.90
9125;DHT22;4597;48.730;9.114;2024-01-16T06:28:56;-1.50;99.90
9125;DHT22;4597;48.730;9.114;2024-01-16T06:31:22;-1.50;99.90
9125;DHT22;4597;48.730;9.114;2024-01-16T06:33:50;-1.50;99.90
9125;DHT22;4597;48.730;9.114;2024-01-16T06:36:15;-1.50;99.90
9125;DHT22;4597;48.730;9.114;2024-01-16T06:38:41;-1.50;99.90
9125;DHT22;4597;48.730;9.114;2024-01-16T06:41:07;-1.50;99.90
9125;DHT22;4597;48.730;9.114;2024-01-16T06:43:32;-1.50;99.90
9125;DHT22;4597;48.730;9.114;2024-01-16T06:45:58;-1.50;99.90
9125;DHT22;4597;48.730;9.114;2024-01-16T06:48:24;-1.50;99.90
9125;DHT22;4597;48.730;9.114;2024-01-16T06:50:49;-1.50;99.90
9125;DHT22;4597;48.730;9.114;2024-01-16T06:53:15;-1.50;99.90
9125;DHT22;4597;48.730;9.114;2024-01-16T06:55:40;-1.50;99.90
9125;DHT22;4597;48.730;9.114;2024-01-16T06:58:06;-1.50;99.90
9125;DHT22;4597;48.730;9.114;2024-01-16T07:00:31;-1.40;99.90
9125;DHT22;4597;48.730;9.114;2024-01-16T07:02:57;-1.50;99.90
9125;DHT22;4597;48.730;9.114;2024-01-16T07:05:23;-1.40;99.90
9125;DHT22;4597;48.730;9.114;2024-01-16T07:07:49;-1.40;99.90
9125;DHT22;4597;48.730;9.114;2024-01-16T07:10:14;-1.40;99.90
9125;DHT22;4597;48.730;9.114;2024-01-16T07:12:46;-1.40;99.90
9125;DHT22;4597;48.730;9.114;2024-01-16T07:15:12;-1.40;99.90
9125;DHT22;4597;48.730;9.114;2024-01-16T07:17:39;-1.40;99.90
9125;DHT22;4597;48.730;9.114;2024-01-16T07:20:05;-1.40;99.90
9125;DHT22;4597;48.730;9.114;2024-01-16T07:22:30;-1.40;99.90
9125;DHT22;4597;48.730;9.114;2024-01-16T07:24:56;-1.40;99.90
9125;DHT22;4597;48.730;9.114;2024-01-16T07:27:21;-1.40;99.90
9125;DHT22;4597;48.730;9.114;2024-01-16T07:29:47;-1.40;99.90
9125;DHT22;4597;48.730;9.114;2024-01-16T07:32:12;-1.40;99.90
9125;DHT22;4597;48.730;9.114;2024-01-16T07:34:38;-1.40;99.90
9125;DHT22;4597;48.730;9.114;2024-01-16T07:37:03;-1.30;99.90
9125;DHT22;4597;48.730;9.114;2024-01-16T07:39:29;-1.30;99.90
9125;DHT22;4597;48.730;9.114;2024-01-16T07:41:54;-1.30;99.90
9125;DHT22;4597;48.730;9.114;2024-01-16T07:44:20;-1.20;99.90
9125;DHT22;4597;48.730;9.114;2024-01-16T07:46:45;-1.20;99.90
9125;DHT22;4597;48.730;9.114;2024-01-16T07:49:11;-1.20;99.90
9125;DHT22;4597;48.730;9.114;2024-01-16T07:51:36;-1.20;99.90
9125;DHT22;4597;48.730;9.114;2024-01-16T07:54:06;-1.20;99.90
9125;DHT22;4597;48.730;9.114;2024-01-16T07:56:33;-1.10;99.90
9125;DHT22;4597;48.730;9.114;2024-01-16T07:58:59;-1.10;99.90
9125;DHT22;4597;48.730;9.114;2024-01-16T08:01:24;-1.10;99.90
9125;DHT22;4597;48.730;9.114;2024-01-16T08:03:50;-0.90;99.90
9125;DHT22;4597;48.730;9.114;2024-01-16T08:06:15;-0.90;99.90
9125;DHT22;4597;48.730;9.114;2024-01-16T08:08:41;-0.90;99.90
9125;DHT22;4597;48.730;9.114;2024-01-16T08:11:06;-0.80;99.90
9125;DHT22;4597;48.730;9.114;2024-01-16T08:13:32;-0.80;99.90
9125;DHT22;4597;48.730;9.114;2024-01-16T08:15:58;-0.70;99.90
9125;DHT22;4597;48.730;9.114;2024-01-16T08:18:24;-0.70;99.90
9125;DHT22;4597;48.730;9.114;2024-01-16T08:20:49;-0.60;99.90
9125;DHT22;4597;48.730;9.114;2024-01-16T08:23:15;-0.60;99.90
9125;DHT22;4597;48.730;9.114;2024-01-16T08:25:40;-0.50;99.90
9125;DHT22;4597;48.730;9.114;2024-01-16T08:28:06;-0.50;99.90
9125;DHT22;4597;48.730;9.114;2024-01-16T08:30:31;-0.40;99.90
9125;DHT22;4597;48.730;9.114;2024-01-16T08:32:57;-0.40;99.90
9125;DHT22;4597;48.730;9.114;2024-01-16T08:35:22;-0.40;99.90
9125;DHT22;4597;48.730;9.114;2024-01-16T08:37:48;-0.40;99.90
9125;DHT22;4597;48.730;9.114;2024-01-16T08:40:15;-0.30;99.90
9125;DHT22;4597;48.730;9.114;2024-01-16T08:42:40;-0.30;99.90
9125;DHT22;4597;48.730;9.114;2024-01-16T08:45:06;-0.20;99.90
9125;DHT22;4597;48.730;9.114;2024-01-16T08:47:32;-0.20;99.90
9125;DHT22;4597;48.730;9.114;2024-01-16T08:49:58;-0.10;99.90
9125;DHT22;4597;48.730;9.114;2024-01-16T08:52:23;0.00;99.90
9125;DHT22;4597;48.730;9.114;2024-01-16T08:54:49;0.10;99.90
9125;DHT22;4597;48.730;9.114;2024-01-16T08:57:14;0.10;99.90
9125;DHT22;4597;48.730;9.114;2024-01-16T08:59:40;0.20;99.90
9125;DHT22;4597;48.730;9.114;2024-01-16T09:02:06;0.20;99.90
9125;DHT22;4597;48.730;9.114;2024-01-16T09:04:31;0.30;99.90
9125;DHT22;4597;48.730;9.114;2024-01-16T09:06:57;0.30;99.90
9125;DHT22;4597;48.730;9.114;2024-01-16T09:09:22;0.40;99.90
9125;DHT22;4597;48.730;9.114;2024-01-16T09:11:48;0.50;99.90
9125;DHT22;4597;48.730;9.114;2024-01-16T09:14:14;0.40;99.90
9125;DHT22;4597;48.730;9.114;2024-01-16T09:16:39;0.40;99.90
9125;DHT22;4597;48.730;9.114;2024-01-16T09:19:06;0.50;99.90
9125;DHT22;4597;48.730;9.114;2024-01-16T09:21:31;0.50;99.90
9125;DHT22;4597;48.730;9.114;2024-01-16T09:23:57;0.50;99.90
9125;DHT22;4597;48.730;9.114;2024-01-16T09:26:23;0.60;99.90
9125;DHT22;4597;48.730;9.114;2024-01-16T09:28:48;0.60;99.90
9125;DHT22;4597;48.730;9.114;2024-01-16T09:31:15;0.70;99.90
9125;DHT22;4597;48.730;9.114;2024-01-16T09:33:41;0.70;99.90
9125;DHT22;4597;48.730;9.114;2024-01-16T09:36:08;0.80;99.90
9125;DHT22;4597;48.730;9.114;2024-01-16T09:38:34;0.90;99.90
9125;DHT22;4597;48.730;9.114;2024-01-16T09:41:00;1.00;99.90
9125;DHT22;4597;48.730;9.114;2024-01-16T09:43:27;1.00;99.90
9125;DHT22;4597;48.730;9.114;2024-01-16T09:45:55;1.10;99.90
9125;DHT22;4597;48.730;9.114;2024-01-16T09:48:21;1.20;99.90
9125;DHT22;4597;48.730;9.114;2024-01-16T09:50:47;1.30;99.90
9125;DHT22;4597;48.730;9.114;2024-01-16T09:53:12;1.40;99.90
9125;DHT22;4597;48.730;9.114;2024-01-16T09:55:38;1.30;99.90
9125;DHT22;4597;48.730;9.114;2024-01-16T09:58:05;1.40;99.90
9125;DHT22;4597;48.730;9.114;2024-01-16T10:00:34;1.40;99.90
9125;DHT22;4597;48.730;9.114;2024-01-16T10:03:01;1.40;99.90
9125;DHT22;4597;48.730;9.114;2024-01-16T10:05:26;1.50;99.90
9125;DHT22;4597;48.730;9.114;2024-01-16T10:07:52;1.50;99.90
9125;DHT22;4597;48.730;9.114;2024-01-16T10:10:18;1.60;99.90
9125;DHT22;4597;48.730;9.114;2024-01-16T10:12:44;1.70;99.90
9125;DHT22;4597;48.730;9.114;2024-01-16T10:15:10;1.70;99.90
9125;DHT22;4597;48.730;9.114;2024-01-16T10:17:40;1.80;99.90
9125;DHT22;4597;48.730;9.114;2024-01-16T10:20:07;1.70;99.90
9125;DHT22;4597;48.730;9.114;2024-01-16T10:22:33;1.70;99.90
9125;DHT22;4597;48.730;9.114;2024-01-16T10:25:24;1.70;99.90
9125;DHT22;4597;48.730;9.114;2024-01-16T10:28:03;1.70;98.30
9125;DHT22;4597;48.730;9.114;2024-01-16T10:30:28;1.70;98.60
9125;DHT22;4597;48.730;9.114;2024-01-16T10:32:54;1.90;98.40
9125;DHT22;4597;48.730;9.114;2024-01-16T10:35:20;2.00;98.30
9125;DHT22;4597;48.730;9.114;2024-01-16T10:37:50;2.20;98.80
9125;DHT22;4597;48.730;9.114;2024-01-16T10:40:17;2.40;98.70
9125;DHT22;4597;48.730;9.114;2024-01-16T10:42:44;2.60;98.40
9125;DHT22;4597;48.730;9.114;2024-01-16T10:45:17;2.70;97.50
9125;DHT22;4597;48.730;9.114;2024-01-16T10:47:48;2.80;95.40
9125;DHT22;4597;48.730;9.114;2024-01-16T10:50:14;2.80;94.30
9125;DHT22;4597;48.730;9.114;2024-01-16T10:52:46;2.90;94.10
9125;DHT22;4597;48.730;9.114;2024-01-16T10:55:18;3.00;94.50
9125;DHT22;4597;48.730;9.114;2024-01-16T10:57:44;3.00;93.70
9125;DHT22;4597;48.730;9.114;2024-01-16T11:00:12;3.00;91.30
9125;DHT22;4597;48.730;9.114;2024-01-16T11:02:44;2.90;90.80
9125;DHT22;4597;48.730;9.114;2024-01-16T11:05:16;2.80;91.00
9125;DHT22;4597;48.730;9.114;2024-01-16T11:07:42;2.70;91.60
9125;DHT22;4597;48.730;9.114;2024-01-16T11:10:09;2.60;90.90
9125;DHT22;4597;48.730;9.114;2024-01-16T11:12:39;2.40;91.90
9125;DHT22;4597;48.730;9.114;2024-01-16T11:15:07;2.20;91.20
9125;DHT22;4597;48.730;9.114;2024-01-16T11:17:34;2.10;92.30
9125;DHT22;4597;48.730;9.114;2024-01-16T11:20:03;2.10;93.70
9125;DHT22;4597;48.730;9.114;2024-01-16T11:22:37;2.10;92.40
9125;DHT22;4597;48.730;9.114;2024-01-16T11:25:11;2.30;92.00
9125;DHT22;4597;48.730;9.114;2024-01-16T11:27:37;2.40;93.10
9125;DHT22;4597;48.730;9.114;2024-01-16T11:30:08;2.60;93.80
9125;DHT22;4597;48.730;9.114;2024-01-16T11:32:43;2.70;93.40
9125;DHT22;4597;48.730;9.114;2024-01-16T11:35:10;2.80;90.30
9125;DHT22;4597;48.730;9.114;2024-01-16T11:37:40;3.00;89.70
9125;DHT22;4597;48.730;9.114;2024-01-16T11:42:46;3.40;86.30
9125;DHT22;4597;48.730;9.114;2024-01-16T11:45:47;3.50;87.80
9125;DHT22;4597;48.730;9.114;2024-01-16T11:48:14;3.60;84.20
9125;DHT22;4597;48.730;9.114;2024-01-16T11:50:41;3.50;86.00
9125;DHT22;4597;48.730;9.114;2024-01-16T11:53:07;3.40;86.50
9125;DHT22;4597;48.730;9.114;2024-01-16T11:55:34;3.40;87.90
9125;DHT22;4597;48.730;9.114;2024-01-16T12:00:49;3.40;84.90
9125;DHT22;4597;48.730;9.114;2024-01-16T12:03:20;3.40;83.50
9125;DHT22;4597;48.730;9.114;2024-01-16T12:05:59;3.50;78.60
9125;DHT22;4597;48.730;9.114;2024-01-16T12:08:25;3.50;71.60
9125;DHT22;4597;48.730;9.114;2024-01-16T12:10:50;3.40;73.10
9125;DHT22;4597;48.730;9.114;2024-01-16T12:13:16;3.40;74.50
9125;DHT22;4597;48.730;9.114;2024-01-16T12:15:42;3.40;75.70
9125;DHT22;4597;48.730;9.114;2024-01-16T12:18:08;3.50;74.70
9125;DHT22;4597;48.730;9.114;2024-01-16T12:20:35;3.50;73.80
9125;DHT22;4597;48.730;9.114;2024-01-16T12:23:03;3.50;71.40
9125;DHT22;4597;48.730;9.114;2024-01-16T12:25:30;3.40;66.90
9125;DHT22;4597;48.730;9.114;2024-01-16T12:28:03;3.40;66.30
9125;DHT22;4597;48.730;9.114;2024-01-16T12:30:35;3.40;70.40
9125;DHT22;4597;48.730;9.114;2024-01-16T12:35:36;3.50;70.40
9125;DHT22;4597;48.730;9.114;2024-01-16T12:38:03;3.40;68.10
9125;DHT22;4597;48.730;9.114;2024-01-16T12:40:31;3.50;64.70
9125;DHT22;4597;48.730;9.114;2024-01-16T12:42:57;3.50;65.60
9125;DHT22;4597;48.730;9.114;2024-01-16T12:45:22;3.50;68.70
9125;DHT22;4597;48.730;9.114;2024-01-16T12:47:52;3.60;71.00
9125;DHT22;4597;48.730;9.114;2024-01-16T12:50:23;3.70;73.20
9125;DHT22;4597;48.730;9.114;2024-01-16T12:52:50;3.80;73.20
9125;DHT22;4597;48.730;9.114;2024-01-16T12:55:16;3.80;74.10
9125;DHT22;4597;48.730;9.114;2024-01-16T12:57:43;3.80;71.80
9125;DHT22;4597;48.730;9.114;2024-01-16T13:00:24;3.80;70.80
9125;DHT22;4597;48.730;9.114;2024-01-16T13:02:53;3.80;72.20
9125;DHT22;4597;48.730;9.114;2024-01-16T13:05:22;3.80;70.00
9125;DHT22;4597;48.730;9.114;2024-01-16T13:08:00;3.90;67.00
9125;DHT22;4597;48.730;9.114;2024-01-16T13:10:28;4.00;62.70
9125;DHT22;4597;48.730;9.114;2024-01-16T13:13:12;4.00;61.70
9125;DHT22;4597;48.730;9.114;2024-01-16T13:15:38;4.10;65.00
9125;DHT22;4597;48.730;9.114;2024-01-16T13:18:04;4.20;61.50
9125;DHT22;4597;48.730;9.114;2024-01-16T13:20:29;4.10;59.40
9125;DHT22;4597;48.730;9.114;2024-01-16T13:22:55;4.20;59.20
9125;DHT22;4597;48.730;9.114;2024-01-16T13:25:21;4.30;58.40
9125;DHT22;4597;48.730;9.114;2024-01-16T13:27:46;4.50;62.10
9125;DHT22;4597;48.730;9.114;2024-01-16T13:30:12;4.60;58.80
9125;DHT22;4597;48.730;9.114;2024-01-16T13:32:38;4.70;56.10
9125;DHT22;4597;48.730;9.114;2024-01-16T13:35:04;4.70;55.20
9125;DHT22;4597;48.730;9.114;2024-01-16T13:37:33;4.70;55.20
9125;DHT22;4597;48.730;9.114;2024-01-16T13:39:58;4.50;52.40
9125;DHT22;4597;48.730;9.114;2024-01-16T13:42:24;4.50;52.70
9125;DHT22;4597;48.730;9.114;2024-01-16T13:44:50;4.50;53.60
9125;DHT22;4597;48.730;9.114;2024-01-16T13:47:16;4.70;56.60
9125;DHT22;4597;48.730;9.114;2024-01-16T13:49:44;4.80;57.50
9125;DHT22;4597;48.730;9.114;2024-01-16T13:52:10;4.90;55.00
9125;DHT22;4597;48.730;9.114;2024-01-16T13:54:38;5.00;54.50
9125;DHT22;4597;48.730;9.114;2024-01-16T13:57:05;5.10;55.30
9125;DHT22;4597;48.730;9.114;2024-01-16T13:59:30;5.20;53.50
9125;DHT22;4597;48.730;9.114;2024-01-16T14:01:56;5.20;51.30
9125;DHT22;4597;48.730;9.114;2024-01-16T14:04:21;5.20;52.70
9125;DHT22;4597;48.730;9.114;2024-01-16T14:06:47;5.20;53.60
9125;DHT22;4597;48.730;9.114;2024-01-16T14:09:12;5.30;53.90
9125;DHT22;4597;48.730;9.114;2024-01-16T14:11:39;5.30;51.70
9125;DHT22;4597;48.730;9.114;2024-01-16T14:14:04;5.40;52.60
9125;DHT22;4597;48.730;9.114;2024-01-16T14:16:30;5.50;52.70
9125;DHT22;4597;48.730;9.114;2024-01-16T14:18:56;5.50;53.10
9125;DHT22;4597;48.730;9.114;2024-01-16T14:21:21;5.50;49.30
9125;DHT22;4597;48.730;9.114;2024-01-16T14:23:47;5.50;49.80
9125;DHT22;4597;48.730;9.114;2024-01-16T14:26:12;5.60;51.30
9125;DHT22;4597;48.730;9.114;2024-01-16T14:28:38;5.60;51.20
9125;DHT22;4597;48.730;9.114;2024-01-16T14:31:03;5.70;48.70
9125;DHT22;4597;48.730;9.114;2024-01-16T14:33:29;5.70;49.40
9125;DHT22;4597;48.730;9.114;2024-01-16T14:35:55;5.70;48.80
9125;DHT22;4597;48.730;9.114;2024-01-16T14:38:21;5.70;48.40
9125;DHT22;4597;48.730;9.114;2024-01-16T14:40:46;5.80;48.50
9125;DHT22;4597;48.730;9.114;2024-01-16T14:43:12;5.60;47.20
9125;DHT22;4597;48.730;9.114;2024-01-16T14:45:37;5.60;49.10
9125;DHT22;4597;48.730;9.114;2024-01-16T14:48:03;5.70;50.00
9125;DHT22;4597;48.730;9.114;2024-01-16T14:50:29;5.70;49.20
9125;DHT22;4597;48.730;9.114;2024-01-16T14:52:55;5.80;49.90
9125;DHT22;4597;48.730;9.114;2024-01-16T14:55:21;5.80;49.10
9125;DHT22;4597;48.730;9.114;2024-01-16T14:57:48;5.90;49.90
9125;DHT22;4597;48.730;9.114;2024-01-16T15:00:18;5.80;47.20
9125;DHT22;4597;48.730;9.114;2024-01-16T15:02:52;5.80;45.90
9125;DHT22;4597;48.730;9.114;2024-01-16T15:05:19;5.60;46.70
9125;DHT22;4597;48.730;9.114;2024-01-16T15:07:46;5.70;48.20
9125;DHT22;4597;48.730;9.114;2024-01-16T15:10:12;5.70;48.50
9125;DHT22;4597;48.730;9.114;2024-01-16T15:12:38;5.70;47.40
9125;DHT22;4597;48.730;9.114;2024-01-16T15:15:08;5.50;46.30
9125;DHT22;4597;48.730;9.114;2024-01-16T15:17:36;5.40;46.00
9125;DHT22;4597;48.730;9.114;2024-01-16T15:20:02;5.20;45.60
9125;DHT22;4597;48.730;9.114;2024-01-16T15:22:29;5.10;48.20
9125;DHT22;4597;48.730;9.114;2024-01-16T15:24:55;5.00;47.80
9125;DHT22;4597;48.730;9.114;2024-01-16T15:27:20;5.00;49.10
9125;DHT22;4597;48.730;9.114;2024-01-16T15:29:47;4.90;49.60
9125;DHT22;4597;48.730;9.114;2024-01-16T15:32:13;4.80;50.30
9125;DHT22;4597;48.730;9.114;2024-01-16T15:34:39;4.60;50.00
9125;DHT22;4597;48.730;9.114;2024-01-16T15:37:05;4.40;50.10
9125;DHT22;4597;48.730;9.114;2024-01-16T15:39:31;4.20;51.30
9125;DHT22;4597;48.730;9.114;2024-01-16T15:41:57;3.90;51.50
9125;DHT22;4597;48.730;9.114;2024-01-16T15:44:22;3.70;52.70
9125;DHT22;4597;48.730;9.114;2024-01-16T15:46:56;3.50;53.50
9125;DHT22;4597;48.730;9.114;2024-01-16T15:49:21;3.20;54.80
9125;DHT22;4597;48.730;9.114;2024-01-16T15:51:47;3.00;56.20
9125;DHT22;4597;48.730;9.114;2024-01-16T15:54:12;2.80;57.10
9125;DHT22;4597;48.730;9.114;2024-01-16T15:56:38;2.60;57.70
9125;DHT22;4597;48.730;9.114;2024-01-16T15:59:04;2.40;58.10
9125;DHT22;4597;48.730;9.114;2024-01-16T16:01:29;2.20;59.40
9125;DHT22;4597;48.730;9.114;2024-01-16T16:03:57;2.10;59.70
9125;DHT22;4597;48.730;9.114;2024-01-16T16:06:22;1.90;60.90
9125;DHT22;4597;48.730;9.114;2024-01-16T16:08:48;1.70;61.80
9125;DHT22;4597;48.730;9.114;2024-01-16T16:11:13;1.60;63.20
9125;DHT22;4597;48.730;9.114;2024-01-16T16:13:39;1.40;63.90
9125;DHT22;4597;48.730;9.114;2024-01-16T16:16:04;1.30;65.40